createdAt,value
2018-08-17T00:02:31.916Z,18.02
2018-08-17T00:05:03.945Z,18.03
2018-08-17T00:07:34.723Z,17.96
2018-08-17T00:12:48.002Z,17.89
2018-08-17T00:15:19.605Z,17.94
2018-08-17T00:17:51.648Z,17.87
2018-08-17T00:20:23.144Z,17.84
2018-08-17T00:22:54.840Z,17.86
2018-08-17T00:25:26.168Z,17.84
2018-08-17T00:28:01.423Z,17.94
2018-08-17T00:30:33.951Z,17.90
2018-08-17T00:33:07.289Z,17.81
2018-08-17T00:35:37.203Z,17.77
2018-08-17T00:38:07.202Z,17.72
2018-08-17T00:40:37.173Z,17.73
2018-08-17T00:43:14.806Z,17.67
2018-08-17T00:45:46.369Z,17.61
2018-08-17T00:48:16.319Z,17.65
2018-08-17T00:50:46.376Z,17.62
2018-08-17T00:53:17.244Z,17.59
2018-08-17T00:55:47.355Z,17.56
2018-08-17T00:58:18.088Z,17.53
2018-08-17T01:00:48.601Z,17.52
2018-08-17T01:03:19.256Z,17.49
2018-08-17T01:05:49.291Z,17.46
2018-08-17T01:08:19.572Z,17.46
2018-08-17T01:10:50.773Z,17.50
2018-08-17T01:13:22.411Z,17.50
2018-08-17T01:15:54.649Z,17.47
2018-08-17T01:18:24.757Z,17.42
2018-08-17T01:20:59.723Z,17.40
2018-08-17T01:23:29.314Z,17.42
2018-08-17T01:26:00.238Z,17.42
2018-08-17T01:28:32.648Z,17.43
2018-08-17T01:31:17.080Z,17.47
2018-08-17T01:33:47.137Z,17.45
2018-08-17T01:36:17.782Z,17.46
2018-08-17T01:38:48.171Z,17.44
2018-08-17T01:41:18.903Z,17.45
2018-08-17T01:43:49.540Z,17.46
2018-08-17T01:46:20.001Z,17.39
2018-08-17T01:48:51.734Z,17.49
2018-08-17T01:51:22.484Z,17.48
2018-08-17T01:53:58.095Z,17.56
2018-08-17T01:56:27.988Z,17.59
2018-08-17T01:58:57.915Z,17.66
2018-08-17T02:06:45.018Z,17.64
2018-08-17T02:09:16.088Z,17.63
2018-08-17T02:11:46.062Z,17.64
2018-08-17T02:14:16.968Z,17.71
2018-08-17T02:16:47.598Z,17.67
2018-08-17T02:19:19.296Z,17.63
2018-08-17T02:21:58.105Z,17.62
2018-08-17T02:24:28.619Z,17.63
2018-08-17T02:26:58.643Z,17.64
2018-08-17T02:29:30.638Z,17.67
2018-08-17T02:32:02.160Z,17.67
2018-08-17T02:34:31.971Z,17.62
2018-08-17T02:37:03.421Z,17.53
2018-08-17T02:39:33.651Z,17.44
2018-08-17T02:42:09.402Z,17.34
2018-08-17T02:44:40.033Z,17.28
2018-08-17T02:47:09.971Z,17.18
2018-08-17T02:49:40.100Z,17.16
2018-08-17T02:52:11.409Z,17.16
2018-08-17T02:54:41.307Z,17.15
2018-08-17T02:57:15.950Z,17.14
2018-08-17T02:59:48.696Z,17.10
2018-08-17T03:04:53.545Z,17.10
2018-08-17T03:07:23.359Z,17.14
2018-08-17T03:09:53.980Z,17.14
2018-08-17T03:12:25.608Z,17.16
2018-08-17T03:14:55.623Z,17.14
2018-08-17T03:17:25.336Z,17.08
2018-08-17T03:19:57.323Z,17.06
2018-08-17T03:22:27.309Z,17.05
2018-08-17T03:24:57.632Z,17.00
2018-08-17T03:27:29.072Z,16.97
2018-08-17T03:30:02.513Z,16.93
2018-08-17T03:32:32.347Z,16.96
2018-08-17T03:35:02.333Z,17.00
2018-08-17T03:37:35.718Z,17.03
2018-08-17T03:40:05.942Z,17.04
2018-08-17T03:42:36.049Z,17.05
2018-08-17T03:45:07.808Z,17.04
2018-08-17T03:47:40.310Z,17.05
2018-08-17T03:50:10.359Z,17.04
2018-08-17T03:52:40.217Z,17.04
2018-08-17T03:55:10.577Z,17.06
2018-08-17T03:57:46.699Z,17.06
2018-08-17T04:00:17.351Z,17.02
2018-08-17T04:02:48.736Z,17.04
2018-08-17T04:05:18.747Z,17.04
2018-08-17T04:07:48.634Z,17.03
2018-08-17T04:10:18.520Z,17.06
2018-08-17T04:12:48.757Z,17.11
2018-08-17T04:15:18.607Z,17.12
2018-08-17T04:17:48.923Z,17.15
2018-08-17T04:20:18.860Z,17.14
2018-08-17T04:22:48.991Z,17.17
2018-08-17T04:25:20.840Z,17.16
2018-08-17T04:27:54.597Z,17.19
2018-08-17T04:30:28.913Z,17.13
2018-08-17T04:33:07.325Z,17.20
2018-08-17T04:35:37.585Z,17.21
2018-08-17T04:38:07.765Z,17.18
2018-08-17T04:40:39.327Z,17.20
2018-08-17T04:43:09.680Z,17.16
2018-08-17T04:45:41.136Z,17.18
2018-08-17T04:48:14.162Z,17.30
2018-08-17T04:50:46.108Z,17.36
2018-08-17T04:56:26.191Z,17.50
2018-08-17T04:59:01.116Z,17.55
2018-08-17T05:02:20.067Z,17.54
2018-08-17T05:04:51.379Z,17.60
2018-08-17T05:07:25.722Z,17.64
2018-08-17T05:10:02.947Z,17.67
2018-08-17T05:12:32.790Z,17.75
2018-08-17T05:15:07.188Z,17.84
2018-08-17T05:17:38.021Z,17.95
2018-08-17T05:20:13.110Z,18.05
2018-08-17T05:22:44.190Z,18.14
2018-08-17T05:25:16.880Z,18.20
2018-08-17T05:30:35.001Z,18.41
2018-08-17T05:33:12.396Z,18.52
2018-08-17T05:35:52.331Z,18.59
2018-08-17T05:38:22.693Z,18.69
2018-08-17T05:40:57.027Z,18.79
2018-08-17T05:46:09.556Z,18.93
2018-08-17T05:48:41.109Z,18.92
2018-08-17T05:51:18.121Z,19.01
2018-08-17T05:53:55.138Z,19.10
2018-08-17T05:56:26.356Z,19.17
2018-08-17T05:58:56.482Z,19.23
2018-08-17T06:01:27.659Z,19.29
2018-08-17T06:03:58.009Z,19.35
2018-08-17T06:06:29.119Z,19.47
2018-08-17T06:09:00.730Z,19.50
2018-08-17T06:11:33.487Z,19.52
2018-08-17T06:14:07.070Z,19.55
2018-08-17T06:16:37.589Z,19.63
2018-08-17T06:19:07.804Z,19.75
2018-08-17T06:21:38.805Z,19.73
2018-08-17T06:24:08.715Z,19.77
2018-08-17T06:29:20.441Z,20.05
2018-08-17T06:31:50.650Z,20.11
2018-08-17T06:34:26.758Z,20.19
2018-08-17T06:36:56.462Z,20.38
2018-08-17T06:39:26.324Z,20.57
2018-08-17T06:41:56.526Z,20.74
2018-08-17T06:44:26.260Z,20.91
2018-08-17T06:46:56.242Z,21.04
2018-08-17T06:49:28.912Z,21.13
2018-08-17T06:52:00.567Z,21.24
2018-08-17T06:54:30.320Z,21.41
2018-08-17T06:57:01.108Z,21.63
2018-08-17T06:59:31.007Z,22.01
2018-08-17T07:02:00.979Z,22.27
2018-08-17T07:04:30.890Z,22.54
2018-08-17T07:07:00.655Z,22.77
2018-08-17T07:09:30.715Z,22.97
2018-08-17T07:12:00.319Z,23.26
2018-08-17T07:14:30.134Z,23.53
2018-08-17T07:17:00.616Z,23.73
2018-08-17T07:19:32.473Z,23.92
2018-08-17T07:22:02.882Z,24.05
2018-08-17T07:24:32.671Z,24.14
2018-08-17T07:27:03.381Z,24.27
2018-08-17T07:29:34.096Z,24.33
2018-08-17T07:32:03.940Z,24.38
2018-08-17T07:34:35.690Z,24.49
2018-08-17T07:37:06.258Z,24.61
2018-08-17T07:39:35.933Z,24.76
2018-08-17T07:42:06.556Z,24.88
2018-08-17T07:44:41.137Z,24.96
2018-08-17T07:47:10.813Z,25.16
2018-08-17T07:49:40.794Z,25.39
2018-08-17T07:52:13.594Z,25.61
2018-08-17T07:54:43.388Z,25.71
2018-08-17T07:57:13.378Z,25.78
2018-08-17T07:59:43.550Z,26.00
2018-08-17T08:02:13.354Z,26.18
2018-08-17T08:04:43.441Z,26.36
2018-08-17T08:07:14.090Z,26.52
2018-08-17T08:09:44.614Z,26.75
2018-08-17T08:12:15.365Z,27.21
2018-08-17T08:14:45.902Z,27.96
2018-08-17T08:20:55.079Z,29.98
2018-08-17T08:23:27.824Z,30.40
2018-08-17T08:26:01.583Z,30.58
2018-08-17T08:28:31.192Z,31.31
2018-08-17T08:31:01.363Z,31.75
2018-08-17T08:33:31.134Z,31.41
2018-08-17T08:36:02.072Z,32.10
2018-08-17T08:38:32.398Z,31.97
2018-08-17T08:41:02.335Z,32.04
2018-08-17T08:43:31.942Z,32.76
2018-08-17T08:47:11.379Z,33.23
2018-08-17T08:49:41.073Z,33.50
2018-08-17T08:52:10.742Z,33.90
2018-08-17T08:54:45.169Z,33.61
2018-08-17T08:57:15.427Z,34.22
2018-08-17T08:59:45.493Z,33.87
2018-08-17T09:02:16.275Z,33.79
2018-08-17T09:04:51.069Z,33.71
2018-08-17T09:07:22.270Z,34.50
2018-08-17T09:09:54.961Z,34.40
2018-08-17T09:13:38.151Z,34.15
2018-08-17T09:16:10.449Z,35.26
2018-08-17T09:18:50.236Z,36.00
2018-08-17T09:21:20.252Z,36.68
2018-08-17T09:23:55.921Z,36.54
2018-08-17T09:26:30.975Z,35.61
2018-08-17T09:31:56.465Z,36.24
2018-08-17T09:34:27.682Z,36.52
2018-08-17T09:37:01.400Z,36.55
2018-08-17T09:39:31.753Z,36.41
2018-08-17T09:45:04.774Z,36.56
2018-08-17T09:47:34.955Z,35.15
2018-08-17T09:50:22.746Z,34.23
2018-08-17T09:52:55.145Z,33.77
2018-08-17T09:55:24.750Z,33.69
2018-08-17T09:57:56.739Z,34.28
2018-08-17T10:00:31.484Z,34.53
2018-08-17T10:03:06.186Z,34.79
2018-08-17T10:05:38.777Z,35.37
2018-08-17T10:08:16.438Z,35.71
2018-08-17T10:10:46.270Z,34.63
2018-08-17T10:13:16.710Z,35.22
2018-08-17T10:15:47.034Z,34.16
2018-08-17T10:20:57.023Z,33.46
2018-08-17T10:23:28.785Z,32.97
2018-08-17T10:26:09.076Z,33.15
2018-08-17T10:28:38.858Z,33.03
2018-08-17T10:31:09.894Z,33.01
2018-08-17T10:34:07.640Z,31.54
2018-08-17T10:36:48.599Z,31.35
2018-08-17T10:39:18.850Z,30.73
2018-08-17T10:42:57.068Z,30.83
2018-08-17T10:45:27.611Z,30.71
2018-08-17T10:47:58.734Z,30.95
2018-08-17T10:50:29.712Z,30.94
2018-08-17T10:53:00.547Z,30.75
2018-08-17T10:55:39.851Z,30.90
2018-08-17T10:58:12.324Z,31.01
2018-08-17T11:00:43.353Z,31.01
2018-08-17T11:03:13.475Z,31.71
2018-08-17T11:05:43.714Z,31.76
2018-08-17T11:08:13.662Z,32.03
2018-08-17T11:10:43.493Z,32.23
2018-08-17T11:13:14.121Z,31.55
2018-08-17T11:15:44.335Z,31.36
2018-08-17T11:18:14.575Z,30.93
2018-08-17T11:20:46.242Z,30.65
2018-08-17T11:23:17.011Z,30.39
2018-08-17T11:25:51.602Z,30.08
2018-08-17T11:28:23.680Z,30.06
2018-08-17T11:30:53.825Z,29.82
2018-08-17T11:33:27.990Z,29.73
2018-08-17T11:35:58.347Z,29.64
2018-08-17T11:38:31.534Z,29.69
2018-08-17T11:41:01.150Z,29.68
2018-08-17T11:43:52.238Z,29.35
2018-08-17T11:46:25.363Z,29.20
2018-08-17T11:48:55.255Z,29.14
2018-08-17T11:51:24.881Z,28.80
2018-08-17T11:53:54.569Z,28.84
2018-08-17T11:56:24.206Z,29.03
2018-08-17T11:58:53.879Z,29.08
2018-08-17T12:01:29.116Z,28.97
2018-08-17T12:03:58.785Z,29.22
2018-08-17T12:06:29.382Z,29.36
2018-08-17T12:08:58.957Z,29.58
2018-08-17T12:11:28.530Z,29.76
2018-08-17T12:13:58.106Z,29.91
2018-08-17T12:16:29.589Z,30.01
2018-08-17T12:18:59.939Z,30.16
2018-08-17T12:21:30.017Z,30.12
2018-08-17T12:24:06.012Z,30.05
2018-08-17T12:29:30.194Z,30.56
2018-08-17T12:34:37.887Z,30.45
2018-08-17T12:37:25.852Z,30.57
2018-08-17T12:39:55.777Z,30.44
2018-08-17T12:45:19.411Z,30.41
2018-08-17T12:47:50.291Z,30.65
2018-08-17T12:50:20.012Z,30.88
2018-08-17T12:52:52.154Z,30.68
2018-08-17T12:55:23.831Z,30.63
2018-08-17T12:57:54.728Z,30.82
2018-08-17T13:00:25.415Z,30.90
2018-08-17T13:02:55.704Z,31.37
2018-08-17T13:05:26.848Z,31.60
2018-08-17T13:10:42.289Z,32.19
2018-08-17T13:13:22.710Z,32.14
2018-08-17T13:18:33.316Z,31.68
2018-08-17T13:21:14.088Z,31.66
2018-08-17T13:23:43.985Z,31.90
2018-08-17T13:26:42.956Z,32.23
2018-08-17T13:29:14.157Z,32.45
2018-08-17T13:31:43.905Z,32.86
2018-08-17T13:34:18.471Z,33.62
2018-08-17T13:36:48.437Z,34.09
2018-08-17T13:39:18.727Z,34.18
2018-08-17T13:41:50.971Z,35.30
2018-08-17T13:44:25.306Z,37.13
2018-08-17T13:46:55.536Z,37.98
2018-08-17T13:49:26.085Z,36.82
2018-08-17T13:51:55.988Z,35.03
2018-08-17T13:54:25.904Z,34.06
2018-08-17T13:56:56.092Z,33.27
2018-08-17T13:59:26.085Z,32.84
2018-08-17T14:01:59.621Z,32.54
2018-08-17T14:04:29.497Z,32.69
2018-08-17T14:06:59.472Z,32.37
2018-08-17T14:09:30.893Z,31.97
2018-08-17T14:12:01.737Z,31.52
2018-08-17T14:14:35.972Z,31.01
2018-08-17T14:17:06.426Z,30.86
2018-08-17T14:26:13.708Z,30.25
2018-08-17T14:28:45.496Z,29.95
2018-08-17T14:31:17.500Z,29.78
2018-08-17T14:33:48.459Z,29.69
2018-08-17T14:36:19.194Z,29.63
2018-08-17T14:38:54.087Z,29.57
2018-08-17T14:41:26.870Z,29.47
2018-08-17T14:43:57.863Z,29.40
2018-08-17T14:46:39.563Z,29.34
2018-08-17T14:51:46.943Z,29.32
2018-08-17T14:54:26.711Z,29.31
2018-08-17T14:57:01.733Z,29.06
2018-08-17T14:59:32.666Z,28.78
2018-08-17T15:02:03.095Z,28.62
2018-08-17T15:05:35.575Z,28.33
2018-08-17T15:08:06.022Z,28.06
2018-08-17T15:10:36.528Z,28.00
2018-08-17T15:13:06.658Z,27.95
2018-08-17T15:15:36.765Z,27.87
2018-08-17T15:18:06.857Z,27.85
2018-08-17T15:20:36.800Z,27.69
2018-08-17T15:23:07.789Z,27.66
2018-08-17T15:25:38.989Z,27.53
2018-08-17T15:28:09.001Z,27.55
2018-08-17T15:30:40.517Z,27.48
2018-08-17T15:33:19.424Z,27.55
2018-08-17T15:35:49.662Z,27.60
2018-08-17T15:38:19.574Z,27.47
2018-08-17T15:40:49.769Z,27.39
2018-08-17T15:43:21.393Z,27.37
2018-08-17T15:45:51.576Z,27.33
2018-08-17T15:53:28.426Z,27.37
2018-08-17T15:55:58.492Z,27.43
2018-08-17T15:58:30.081Z,27.35
2018-08-17T16:01:03.044Z,27.61
2018-08-17T16:03:34.073Z,27.92
2018-08-17T16:06:13.997Z,28.16
2018-08-17T16:08:44.806Z,28.13
2018-08-17T16:11:15.025Z,28.31
2018-08-17T16:13:45.576Z,28.44
2018-08-17T16:16:15.830Z,28.33
2018-08-17T16:18:46.250Z,27.91
2018-08-17T16:21:16.327Z,27.76
2018-08-17T16:23:47.001Z,27.71
2018-08-17T16:26:17.079Z,27.55
2018-08-17T16:28:47.810Z,27.47
2018-08-17T16:31:18.970Z,27.47
2018-08-17T16:33:49.391Z,27.34
2018-08-17T16:36:19.980Z,27.16
2018-08-17T16:38:51.422Z,27.05
2018-08-17T16:41:22.468Z,26.93
2018-08-17T16:43:53.725Z,26.85
2018-08-17T16:46:24.172Z,26.73
2018-08-17T16:48:53.877Z,26.68
2018-08-17T16:54:21.736Z,26.55
2018-08-17T16:56:52.116Z,26.53
2018-08-17T16:59:22.408Z,26.52
2018-08-17T17:01:53.568Z,26.49
2018-08-17T17:04:23.999Z,26.51
2018-08-17T17:06:54.544Z,26.40
2018-08-17T17:12:02.987Z,26.21
2018-08-17T17:14:44.576Z,26.17
2018-08-17T17:17:16.742Z,26.11
2018-08-17T17:19:48.202Z,26.12
2018-08-17T17:22:20.080Z,26.07
2018-08-17T17:24:50.579Z,26.00
2018-08-17T17:27:21.602Z,25.97
2018-08-17T17:30:04.808Z,25.88
2018-08-17T17:32:34.954Z,25.80
2018-08-17T17:35:12.545Z,25.77
2018-08-17T17:37:45.572Z,25.70
2018-08-17T17:40:17.813Z,25.62
2018-08-17T17:42:48.852Z,25.61
2018-08-17T17:48:19.118Z,25.56
2018-08-17T17:50:50.253Z,25.57
2018-08-17T17:57:19.020Z,25.59
2018-08-17T18:00:01.579Z,25.54
2018-08-17T18:02:33.867Z,25.51
2018-08-17T18:11:08.696Z,25.71
2018-08-17T18:13:46.139Z,25.73
2018-08-17T18:16:17.281Z,25.77
2018-08-17T18:18:50.375Z,25.73
2018-08-17T18:21:24.782Z,25.63
2018-08-17T18:24:12.556Z,25.68
2018-08-17T18:30:40.570Z,25.58
2018-08-17T18:36:09.752Z,25.48
2018-08-17T18:44:26.486Z,25.16
2018-08-17T18:47:28.176Z,25.16
2018-08-17T18:53:13.486Z,25.16
2018-08-17T18:55:59.185Z,25.15
2018-08-17T18:59:02.404Z,25.13
2018-08-17T19:01:39.200Z,24.96
2018-08-17T19:04:10.368Z,24.90
2018-08-17T19:06:43.528Z,24.85
2018-08-17T19:09:14.740Z,24.88
2018-08-17T19:11:46.049Z,24.83
2018-08-17T19:14:22.948Z,24.74
2018-08-17T19:16:54.091Z,24.75
2018-08-17T19:19:25.203Z,24.71
2018-08-17T19:24:50.560Z,24.46
2018-08-17T19:30:03.753Z,24.39
2018-08-17T19:32:34.977Z,24.36
2018-08-17T19:35:05.940Z,24.31
2018-08-17T19:37:40.567Z,24.33
2018-08-17T19:40:10.928Z,24.30
2018-08-17T19:42:41.717Z,24.32
2018-08-17T19:48:00.602Z,24.08
2018-08-17T19:50:41.595Z,24.08
2018-08-17T19:53:11.708Z,24.01
2018-08-17T19:55:41.776Z,23.95
2018-08-17T19:58:15.599Z,23.90
2018-08-17T20:00:48.979Z,23.86
2018-08-17T20:03:25.550Z,23.87
2018-08-17T20:06:24.940Z,23.81
2018-08-17T20:08:54.918Z,23.72
2018-08-17T20:11:43.664Z,22.82
2018-08-17T20:14:19.993Z,23.68
2018-08-17T20:16:56.465Z,23.63
2018-08-17T20:19:45.271Z,23.63
2018-08-17T20:22:24.036Z,23.55
2018-08-17T20:27:34.176Z,23.47
2018-08-17T20:30:38.084Z,23.45
2018-08-17T20:33:22.039Z,23.41
2018-08-17T20:39:03.055Z,23.32
2018-08-17T20:41:41.917Z,23.29
2018-08-17T20:44:12.448Z,23.34
2018-08-17T20:46:50.856Z,23.28
2018-08-17T20:49:22.876Z,23.26
2018-08-17T20:52:08.297Z,23.26
2018-08-17T20:54:40.567Z,23.21
2018-08-17T20:57:23.010Z,23.17
2018-08-17T20:59:56.266Z,23.11
2018-08-17T21:02:27.861Z,23.11
2018-08-17T21:05:03.115Z,23.09
2018-08-17T21:07:34.983Z,23.07
2018-08-17T21:12:40.131Z,23.02
2018-08-17T21:15:15.965Z,22.95
2018-08-17T21:17:46.205Z,22.91
2018-08-17T21:20:17.652Z,22.86
2018-08-17T21:22:47.913Z,22.76
2018-08-17T21:25:18.002Z,22.71
2018-08-17T21:27:49.124Z,22.69
2018-08-17T21:30:20.906Z,22.67
2018-08-17T21:32:51.212Z,22.64
2018-08-17T21:35:26.953Z,22.61
2018-08-17T21:37:57.457Z,22.55
2018-08-17T21:40:29.156Z,22.52
2018-08-17T21:43:02.004Z,22.44
2018-08-17T21:45:33.647Z,22.41
2018-08-17T21:48:06.046Z,22.37
2018-08-17T21:50:51.184Z,22.34
2018-08-17T21:53:25.979Z,22.34
2018-08-17T21:55:57.459Z,22.21
2018-08-17T21:58:28.352Z,22.08
2018-08-17T22:01:00.355Z,21.98
2018-08-17T22:06:15.243Z,21.82
2018-08-17T22:08:51.567Z,21.78
2018-08-17T22:11:45.380Z,21.66
2018-08-17T22:16:54.133Z,21.43
2018-08-17T22:19:36.368Z,21.46
2018-08-17T22:22:07.513Z,21.45
2018-08-17T22:24:43.879Z,21.45
2018-08-17T22:29:56.402Z,21.50
2018-08-17T22:32:26.834Z,21.51
2018-08-17T22:34:58.686Z,21.56
2018-08-17T22:38:42.877Z,21.56
2018-08-17T22:41:13.914Z,21.48
2018-08-17T22:43:44.135Z,21.39
2018-08-17T22:46:15.729Z,21.36
2018-08-17T22:48:46.619Z,21.14
2018-08-17T22:51:17.764Z,21.00
2018-08-17T22:53:47.876Z,20.75
2018-08-17T22:56:18.005Z,20.49
2018-08-17T22:58:48.692Z,20.15
2018-08-17T23:01:20.332Z,19.94
2018-08-17T23:03:54.577Z,19.57
2018-08-17T23:06:26.532Z,19.28
2018-08-17T23:09:10.809Z,19.06
2018-08-17T23:11:41.327Z,18.85
2018-08-17T23:14:18.017Z,18.77
2018-08-17T23:16:48.122Z,18.74
2018-08-17T23:19:17.978Z,18.63
2018-08-17T23:21:47.701Z,18.55
2018-08-17T23:24:17.692Z,18.48
2018-08-17T23:26:50.841Z,18.37
2018-08-17T23:29:20.645Z,18.32
2018-08-17T23:31:50.255Z,18.35
2018-08-17T23:34:19.917Z,18.26
2018-08-17T23:36:50.329Z,18.21
2018-08-17T23:39:19.897Z,18.10
2018-08-17T23:41:50.107Z,18.02
2018-08-17T23:44:19.867Z,17.99
2018-08-17T23:46:49.727Z,17.99
2018-08-17T23:49:30.444Z,17.91
2018-08-17T23:52:00.567Z,17.87
2018-08-17T23:54:30.340Z,17.87
2018-08-17T23:57:00.489Z,17.84
2018-08-17T23:59:31.540Z,17.83
